KPKB/PKB METAR and TAF weather

Enter ICAO airport designator
Station Type Date Time Source
KPKB METAR 2019/10/21 05:53 UTC NOAA

KPKB 210553Z AUTO 00000KT 5SM BR CLR 09/08 A3003 RMK AO2 SLP168 T00940078 10144 20089 51003 $


Station Type Date Time Source
KPKB Decoded METAR 2019/10/21 05:53 UTC NOAA

MID-OHIO VALLEY RGNL AIRPORT, WV, United States (KPKB) 39-20N 81-27W
Oct 21, 2019 - 01:53 AM EDT / 2019.10.21 0553 UTC
Wind: Calm:0
Visibility: 5 mile(s):0
Sky conditions: clear
Weather: mist
Temperature: 48.9 F (9.4 C)
Dew Point: 46.0 F (7.8 C)
Relative Humidity: 89%
Pressure (altimeter): 30.03 in. Hg (1016 hPa)
Pressure tendency: 0.01 inches (0.3 hPa) higher than three hours ago
ob: KPKB 210553Z AUTO 00000KT 5SM BR CLR 09/08 A3003 RMK AO2 SLP168 T00940078 10144 20089 51003
cycle: 6

Station Type Date Time Source
KPKB TAF 2019/10/21 06:58 UTC NOAA

TAF KPKB 210557Z 2106/2206 VRB03KT 3SM BR FEW002
FM210700 00000KT 1SM BR VV002
FM211100 00000KT 4SM BR SCT003
FM211400 14008KT P6SM SCT200
FM211700 16012KT P6SM SCT200
FM220300 18007KT P6SM SHRA OVC025

Example: see airport list